createdAt,value
2023-04-11T00:01:50.051Z,12.15
2023-04-11T00:04:20.877Z,11.73
2023-04-11T00:06:48.772Z,11.90
2023-04-11T00:09:17.178Z,12.93
2023-04-11T00:11:44.369Z,12.18
2023-04-11T00:14:13.146Z,11.93
2023-04-11T00:16:41.558Z,12.73
2023-04-11T00:19:12.321Z,11.82
2023-04-11T00:21:44.239Z,12.27
2023-04-11T00:24:11.802Z,12.02
2023-04-11T00:26:38.852Z,11.38
2023-04-11T00:29:05.906Z,13.15
2023-04-11T00:31:33.347Z,12.00
2023-04-11T00:34:00.530Z,13.15
2023-04-11T00:36:28.007Z,13.13
2023-04-11T00:38:55.407Z,12.05
2023-04-11T00:41:24.339Z,12.60
2023-04-11T00:43:51.467Z,12.40
2023-04-11T00:46:19.164Z,11.60
2023-04-11T00:48:46.428Z,12.52
2023-04-11T00:51:16.042Z,11.70
2023-04-11T00:53:45.864Z,11.60
2023-04-11T00:56:13.642Z,10.60
2023-04-11T00:58:42.386Z,12.05
2023-04-11T01:01:09.778Z,11.50
2023-04-11T01:03:41.400Z,12.40
2023-04-11T01:06:13.866Z,10.88
2023-04-11T01:08:43.981Z,11.80
2023-04-11T01:11:13.710Z,11.07
2023-04-11T01:13:42.512Z,11.40
2023-04-11T01:16:10.618Z,12.13
2023-04-11T01:18:38.047Z,11.52
2023-04-11T01:21:05.563Z,10.38
2023-04-11T01:23:34.319Z,11.93
2023-04-11T01:26:01.655Z,11.73
2023-04-11T01:28:28.618Z,12.13
2023-04-11T01:30:55.933Z,12.07
2023-04-11T01:33:23.005Z,11.48
2023-04-11T01:35:50.520Z,12.15
2023-04-11T01:38:17.651Z,11.90
2023-04-11T01:40:46.280Z,11.48
2023-04-11T01:43:13.634Z,12.00
2023-04-11T01:45:41.569Z,10.95
2023-04-11T01:48:08.836Z,11.65
2023-04-11T01:50:36.490Z,11.07
2023-04-11T01:53:04.529Z,12.05
2023-04-11T01:55:32.033Z,11.82
2023-04-11T01:57:59.114Z,12.60
2023-04-11T02:00:26.391Z,12.55
2023-04-11T02:02:53.448Z,11.63
2023-04-11T02:05:22.252Z,11.27
2023-04-11T02:07:49.441Z,10.80
2023-04-11T02:10:17.041Z,11.25
2023-04-11T02:12:44.094Z,11.77
2023-04-11T02:15:11.757Z,11.95
2023-04-11T02:17:45.638Z,11.02
2023-04-11T02:20:14.220Z,11.32
2023-04-11T02:22:41.966Z,11.10
2023-04-11T02:25:09.856Z,12.10
2023-04-11T02:27:36.993Z,12.00
2023-04-11T02:30:06.225Z,12.75
2023-04-11T02:32:38.314Z,11.82
2023-04-11T02:35:07.902Z,12.45
2023-04-11T02:37:35.853Z,13.40
2023-04-11T02:40:04.421Z,12.38
2023-04-11T02:42:31.453Z,13.70
2023-04-11T02:44:58.901Z,12.20
2023-04-11T02:47:26.027Z,13.23
2023-04-11T02:49:53.081Z,11.95
2023-04-11T02:52:20.590Z,12.85
2023-04-11T02:54:47.678Z,12.30
2023-04-11T02:57:15.147Z,11.88
2023-04-11T02:59:42.234Z,12.18
2023-04-11T03:02:09.850Z,12.00
2023-04-11T03:04:37.881Z,12.13
2023-04-11T03:07:05.527Z,11.93
2023-04-11T03:09:32.613Z,12.25
2023-04-11T03:12:01.298Z,11.90
2023-04-11T03:14:28.273Z,11.68
2023-04-11T03:16:55.682Z,11.43
2023-04-11T03:19:22.812Z,11.07
2023-04-11T03:21:50.149Z,11.98
2023-04-11T03:24:17.885Z,10.00
2023-04-11T03:26:45.293Z,11.07
2023-04-11T03:29:12.507Z,11.13
2023-04-11T03:31:40.076Z,10.70
2023-04-11T03:34:07.483Z,11.10
2023-04-11T03:36:35.023Z,10.98
2023-04-11T03:39:02.867Z,10.98
2023-04-11T03:41:30.408Z,10.63
2023-04-11T03:43:57.593Z,10.73
2023-04-11T03:46:25.023Z,10.02
2023-04-11T03:48:52.160Z,9.15
2023-04-11T03:51:19.552Z,9.25
2023-04-11T03:53:46.643Z,9.00
2023-04-11T03:56:14.497Z,9.00
2023-04-11T03:58:41.735Z,9.93
2023-04-11T04:01:08.989Z,9.48
2023-04-11T04:03:36.383Z,10.32
2023-04-11T04:06:04.254Z,9.98
2023-04-11T04:08:31.605Z,10.15
2023-04-11T04:10:59.217Z,9.18
2023-04-11T04:13:28.169Z,9.70
2023-04-11T04:15:55.642Z,9.05
2023-04-11T04:18:22.909Z,10.00
2023-04-11T04:20:50.366Z,9.60
2023-04-11T04:23:18.289Z,8.93
2023-04-11T04:25:51.153Z,10.68
2023-04-11T04:28:22.468Z,9.32
2023-04-11T04:30:54.348Z,9.65
2023-04-11T04:33:21.855Z,9.15
2023-04-11T04:35:51.909Z,9.43
2023-04-11T04:38:20.107Z,8.93
2023-04-11T04:40:50.541Z,9.75
2023-04-11T04:43:25.713Z,8.98
2023-04-11T04:45:53.037Z,8.55
2023-04-11T04:48:21.305Z,8.80
2023-04-11T04:50:49.544Z,7.93
2023-04-11T04:53:16.876Z,8.48
2023-04-11T04:55:44.766Z,8.57
2023-04-11T04:58:11.930Z,7.88
2023-04-11T05:00:41.131Z,8.02
2023-04-11T05:03:08.671Z,7.82
2023-04-11T05:05:36.290Z,8.30
2023-04-11T05:08:03.342Z,8.57
2023-04-11T05:10:31.880Z,8.27
2023-04-11T05:12:58.858Z,8.30
2023-04-11T05:15:26.244Z,8.18
2023-04-11T05:17:53.225Z,8.30
2023-04-11T05:20:21.945Z,7.30
2023-04-11T05:22:50.343Z,8.52
2023-04-11T05:25:18.110Z,9.77
2023-04-11T05:27:45.250Z,9.43
2023-04-11T05:30:13.589Z,9.60
2023-04-11T05:32:40.765Z,7.95
2023-04-11T05:35:08.390Z,7.80
2023-04-11T05:37:35.726Z,8.35
2023-04-11T05:40:03.531Z,7.55
2023-04-11T05:42:30.829Z,8.48
2023-04-11T05:44:58.318Z,7.80
2023-04-11T05:47:26.053Z,8.05
2023-04-11T05:49:53.854Z,8.13
2023-04-11T05:52:21.132Z,7.32
2023-04-11T05:54:48.661Z,7.88
2023-04-11T05:57:17.576Z,7.15
2023-04-11T05:59:49.653Z,8.02
2023-04-11T06:02:17.540Z,7.40
2023-04-11T06:04:46.101Z,8.90
2023-04-11T06:07:13.403Z,8.32
2023-04-11T06:09:42.523Z,8.15
2023-04-11T06:12:10.682Z,7.95
2023-04-11T06:14:40.584Z,8.20
2023-04-11T06:17:08.198Z,8.50
2023-04-11T06:19:37.382Z,8.38
2023-04-11T06:22:04.435Z,8.40
2023-04-11T06:24:41.610Z,7.72
2023-04-11T06:27:11.870Z,8.10
2023-04-11T06:29:41.265Z,7.90
2023-04-11T06:32:08.404Z,8.20
2023-04-11T06:34:35.718Z,9.00
2023-04-11T06:37:03.137Z,8.48
2023-04-11T06:39:30.859Z,7.50
2023-04-11T06:41:57.879Z,8.20
2023-04-11T06:44:25.221Z,8.25
2023-04-11T06:46:52.798Z,7.57
2023-04-11T06:49:20.825Z,7.28
2023-04-11T06:51:50.087Z,8.38
2023-04-11T06:54:18.838Z,8.35
2023-04-11T06:56:45.900Z,8.85
2023-04-11T06:59:14.164Z,8.45
2023-04-11T07:01:41.208Z,9.10
2023-04-11T07:04:09.507Z,8.73
2023-04-11T07:06:36.588Z,8.25
2023-04-11T07:09:09.620Z,8.15
2023-04-11T07:11:38.575Z,9.70
2023-04-11T07:14:06.187Z,9.60
2023-04-11T07:16:33.662Z,9.25
2023-04-11T07:19:01.240Z,8.80
2023-04-11T07:21:28.675Z,8.10
2023-04-11T07:23:56.858Z,9.27
2023-04-11T07:26:24.281Z,9.32
2023-04-11T07:28:51.827Z,8.10
2023-04-11T07:31:21.567Z,8.85
2023-04-11T07:33:49.013Z,8.50
2023-04-11T07:36:16.446Z,7.70
2023-04-11T07:38:43.904Z,8.48
2023-04-11T07:41:10.849Z,8.18
2023-04-11T07:43:38.530Z,8.52
2023-04-11T07:46:05.877Z,8.40
2023-04-11T07:48:33.333Z,9.10
2023-04-11T07:51:00.403Z,7.78
2023-04-11T07:53:28.218Z,9.70
2023-04-11T07:55:55.302Z,12.15
2023-04-11T07:58:22.701Z,8.50
2023-04-11T08:00:50.780Z,8.85
2023-04-11T08:03:18.436Z,8.73
2023-04-11T08:05:45.907Z,8.77
2023-04-11T08:08:13.894Z,8.65
2023-04-11T08:10:41.110Z,8.57
2023-04-11T08:13:08.582Z,8.63
2023-04-11T08:15:37.071Z,9.85
2023-04-11T08:18:05.366Z,9.43
2023-04-11T08:20:32.683Z,9.38
2023-04-11T08:23:00.622Z,9.30
2023-04-11T08:25:27.753Z,10.50
2023-04-11T08:27:55.082Z,9.70
2023-04-11T08:30:22.353Z,9.73
2023-04-11T08:32:50.472Z,9.80
2023-04-11T08:35:17.499Z,10.02
2023-04-11T08:37:44.833Z,10.07
2023-04-11T08:40:11.945Z,10.77
2023-04-11T08:42:40.560Z,9.95
2023-04-11T08:45:10.251Z,10.48
2023-04-11T08:47:38.003Z,9.80
2023-04-11T08:50:06.848Z,10.18
2023-04-11T08:52:36.218Z,10.45
2023-04-11T08:55:04.501Z,10.20
2023-04-11T08:57:33.133Z,10.13
2023-04-11T09:00:19.045Z,10.93
2023-04-11T09:03:04.042Z,7.18
2023-04-11T09:05:33.926Z,6.72
2023-04-11T09:08:09.298Z,5.93
2023-04-11T09:10:39.240Z,5.78
2023-04-11T09:13:26.951Z,6.45
2023-04-11T09:16:09.183Z,5.65
2023-04-11T09:18:46.415Z,6.20
2023-04-11T09:21:16.427Z,6.78
2023-04-11T09:23:44.049Z,6.25
2023-04-11T09:26:12.886Z,6.05
2023-04-11T09:28:52.983Z,5.97
2023-04-11T09:31:21.757Z,7.25
2023-04-11T09:33:55.348Z,8.05
2023-04-11T09:36:27.314Z,7.97
2023-04-11T09:38:56.102Z,8.25
2023-04-11T09:41:36.092Z,8.63
2023-04-11T09:44:03.849Z,10.38
2023-04-11T09:46:31.039Z,9.90
2023-04-11T09:48:58.450Z,9.82
2023-04-11T09:53:58.202Z,9.13
2023-04-11T09:56:26.856Z,7.60
2023-04-11T09:58:57.388Z,8.15
2023-04-11T10:01:25.554Z,8.23
2023-04-11T10:03:54.407Z,7.80
2023-04-11T10:07:08.100Z,10.13
2023-04-11T10:09:43.113Z,9.05
2023-04-11T10:12:10.150Z,6.68
2023-04-11T10:14:41.392Z,7.05
2023-04-11T10:17:18.542Z,6.97
2023-04-11T10:19:48.542Z,4.07
2023-04-11T10:22:44.059Z,3.20
2023-04-11T10:27:48.820Z,2.97
2023-04-11T10:30:19.245Z,4.60
2023-04-11T10:33:20.711Z,3.40
2023-04-11T10:36:05.825Z,2.72
2023-04-11T10:38:42.066Z,2.67
2023-04-11T10:41:17.479Z,2.85
2023-04-11T10:46:26.130Z,2.03
2023-04-11T10:49:11.396Z,2.22
2023-04-11T10:54:06.112Z,2.22
2023-04-11T10:56:52.760Z,1.90
2023-04-11T10:59:31.729Z,1.70
2023-04-11T11:02:03.391Z,1.50
2023-04-11T11:04:41.368Z,2.17
2023-04-11T11:07:17.109Z,2.17
2023-04-11T11:09:51.406Z,1.95
2023-04-11T11:12:19.027Z,2.05
2023-04-11T11:14:50.419Z,1.58
2023-04-11T11:17:17.994Z,1.50
2023-04-11T11:19:51.045Z,1.77
2023-04-11T11:22:26.646Z,1.55
2023-04-11T11:24:54.226Z,1.83
2023-04-11T11:27:24.218Z,1.63
2023-04-11T11:29:52.998Z,1.45
2023-04-11T11:32:32.769Z,1.50
2023-04-11T11:35:00.517Z,1.42
2023-04-11T11:37:27.754Z,1.42
2023-04-11T11:39:55.063Z,1.80
2023-04-11T11:42:22.647Z,1.67
2023-04-11T11:44:49.814Z,2.13
2023-04-11T11:47:17.235Z,1.73
2023-04-11T11:49:48.243Z,1.70
2023-04-11T11:52:40.468Z,1.60
2023-04-11T11:55:24.017Z,1.65
2023-04-11T11:57:51.482Z,2.58
2023-04-11T12:00:27.272Z,1.75
2023-04-11T12:02:57.410Z,1.73
2023-04-11T12:05:30.379Z,2.42
2023-04-11T12:08:04.579Z,1.45
2023-04-11T12:10:49.131Z,1.73
2023-04-11T12:13:23.659Z,2.00
2023-04-11T12:15:56.728Z,1.38
2023-04-11T12:18:27.787Z,1.27
2023-04-11T12:20:55.137Z,1.77
2023-04-11T12:23:23.368Z,1.17
2023-04-11T12:25:50.621Z,2.70
2023-04-11T12:28:18.193Z,1.70
2023-04-11T12:30:45.253Z,1.52
2023-04-11T12:33:12.932Z,1.25
2023-04-11T12:35:39.940Z,1.35
2023-04-11T12:38:07.992Z,1.33
2023-04-11T12:40:35.044Z,1.33
2023-04-11T12:43:02.533Z,1.35
2023-04-11T12:45:29.668Z,1.45
2023-04-11T12:47:59.652Z,1.10
2023-04-11T12:50:26.835Z,1.50
2023-04-11T12:52:55.561Z,1.15
2023-04-11T12:55:23.631Z,1.55
2023-04-11T12:57:50.945Z,2.00
2023-04-11T13:00:18.572Z,1.60
2023-04-11T13:02:46.955Z,2.03
2023-04-11T13:05:15.463Z,1.30
2023-04-11T13:07:45.564Z,1.30
2023-04-11T13:10:14.501Z,1.20
2023-04-11T13:12:46.533Z,1.00
2023-04-11T13:15:16.328Z,1.20
2023-04-11T13:17:44.022Z,2.17
2023-04-11T13:20:14.998Z,3.22
2023-04-11T13:22:43.334Z,2.03
2023-04-11T13:25:12.413Z,1.60
2023-04-11T13:27:40.998Z,1.70
2023-04-11T13:30:10.016Z,2.10
2023-04-11T13:33:45.605Z,1.10
2023-04-11T13:36:12.909Z,1.52
2023-04-11T13:38:40.072Z,1.80
2023-04-11T13:41:07.539Z,1.20
2023-04-11T13:43:34.682Z,1.40
2023-04-11T13:46:02.055Z,1.88
2023-04-11T13:48:29.048Z,1.20
2023-04-11T13:50:57.770Z,0.90
2023-04-11T13:53:24.873Z,0.95
2023-04-11T13:55:52.377Z,1.10
2023-04-11T13:58:19.479Z,1.25
2023-04-11T14:00:47.313Z,0.90
2023-04-11T14:03:14.995Z,0.93
2023-04-11T14:05:42.720Z,0.75
2023-04-11T14:08:09.799Z,2.33
2023-04-11T14:10:37.148Z,1.13
2023-04-11T14:13:05.512Z,1.60
2023-04-11T14:15:34.310Z,2.40
2023-04-11T14:18:01.808Z,0.90
2023-04-11T14:20:29.362Z,1.05
2023-04-11T14:22:57.093Z,0.95
2023-04-11T14:25:24.591Z,0.75
2023-04-11T14:27:51.641Z,0.82
2023-04-11T14:30:19.209Z,1.65
2023-04-11T14:32:47.190Z,1.30
2023-04-11T14:35:15.118Z,1.13
2023-04-11T14:37:43.074Z,1.58
2023-04-11T14:40:11.560Z,1.00
2023-04-11T14:42:39.779Z,2.00
2023-04-11T14:45:08.188Z,1.52
2023-04-11T14:47:36.009Z,1.65
2023-04-11T14:50:04.075Z,1.27
2023-04-11T14:52:31.366Z,1.00
2023-04-11T14:54:59.057Z,1.30
2023-04-11T14:57:46.822Z,1.27
2023-04-11T15:00:20.256Z,1.00
2023-04-11T15:02:50.839Z,1.92
2023-04-11T15:05:19.857Z,1.08
2023-04-11T15:07:49.322Z,0.93
2023-04-11T15:10:20.152Z,1.67
2023-04-11T15:12:47.916Z,1.30
2023-04-11T15:15:16.161Z,1.90
2023-04-11T15:17:49.656Z,1.02
2023-04-11T15:20:19.911Z,1.60
2023-04-11T15:22:48.111Z,1.02
2023-04-11T15:25:16.730Z,1.33
2023-04-11T15:27:44.352Z,2.88
2023-04-11T15:30:12.189Z,1.70
2023-04-11T15:32:46.116Z,1.90
2023-04-11T15:35:13.601Z,1.05
2023-04-11T15:37:41.563Z,1.50
2023-04-11T15:40:12.466Z,1.63
2023-04-11T15:42:39.826Z,1.05
2023-04-11T15:45:08.153Z,1.02
2023-04-11T15:47:35.453Z,1.05
2023-04-11T15:50:04.849Z,1.45
2023-04-11T15:52:33.904Z,2.40
2023-04-11T15:55:01.413Z,1.30
2023-04-11T15:57:28.780Z,2.90
2023-04-11T15:59:56.245Z,1.42
2023-04-11T16:02:24.227Z,1.48
2023-04-11T16:04:54.027Z,1.20
2023-04-11T16:07:23.247Z,2.17
2023-04-11T16:09:50.790Z,1.48
2023-04-11T16:12:18.906Z,1.30
2023-04-11T16:14:46.445Z,1.10
2023-04-11T16:17:19.204Z,2.15
2023-04-11T16:19:47.668Z,1.50
2023-04-11T16:22:14.764Z,1.08
2023-04-11T16:24:42.329Z,1.20
2023-04-11T16:27:09.672Z,1.17
2023-04-11T16:29:37.119Z,1.95
2023-04-11T16:32:04.977Z,1.95
2023-04-11T16:34:32.420Z,1.60
2023-04-11T16:36:59.712Z,1.30
2023-04-11T16:39:28.055Z,1.40
2023-04-11T16:41:56.366Z,1.70
2023-04-11T16:44:33.810Z,1.50
2023-04-11T16:47:30.122Z,1.48
2023-04-11T16:49:57.648Z,1.88
2023-04-11T16:52:24.969Z,1.70
2023-04-11T16:54:52.461Z,1.63
2023-04-11T16:57:19.588Z,1.65
2023-04-11T16:59:47.133Z,1.48
2023-04-11T17:02:14.226Z,2.85
2023-04-11T17:04:44.821Z,2.53
2023-04-11T17:07:11.769Z,2.25
2023-04-11T17:09:39.425Z,1.23
2023-04-11T17:12:06.692Z,2.28
2023-04-11T17:14:37.161Z,1.50
2023-04-11T17:17:10.892Z,2.92
2023-04-11T17:19:38.386Z,1.85
2023-04-11T17:22:21.180Z,1.70
2023-04-11T17:25:24.554Z,2.00
2023-04-11T17:27:54.552Z,2.17
2023-04-11T17:31:02.943Z,1.52
2023-04-11T17:33:46.744Z,2.13
2023-04-11T17:36:26.114Z,1.98
2023-04-11T17:39:02.953Z,2.28
2023-04-11T17:41:59.546Z,3.45
2023-04-11T17:44:52.887Z,2.05
2023-04-11T17:47:20.347Z,1.67
2023-04-11T17:50:07.735Z,1.35
2023-04-11T17:52:52.261Z,1.80
2023-04-11T17:58:49.023Z,2.95
2023-04-11T18:02:02.449Z,1.98
2023-04-11T18:08:51.540Z,3.03
2023-04-11T18:11:40.538Z,2.50
2023-04-11T18:17:28.800Z,2.40
2023-04-11T18:24:06.899Z,1.35
2023-04-11T18:27:11.299Z,1.70
2023-04-11T18:33:47.135Z,2.08
2023-04-11T18:36:57.919Z,2.17
2023-04-11T18:40:29.789Z,1.80
2023-04-11T18:44:01.527Z,2.15
2023-04-11T18:47:32.836Z,2.15
2023-04-11T18:55:35.758Z,1.48
2023-04-11T19:03:20.926Z,4.28
2023-04-11T19:09:48.288Z,1.95
2023-04-11T19:16:56.042Z,1.88
2023-04-11T19:25:15.841Z,1.85
2023-04-11T19:29:39.129Z,2.88
2023-04-11T19:32:55.242Z,2.42
2023-04-11T19:36:19.925Z,2.67
2023-04-11T19:39:38.397Z,2.90
2023-04-11T19:43:25.880Z,2.10
2023-04-11T19:46:56.540Z,2.45
2023-04-11T19:54:11.625Z,1.50
2023-04-11T19:58:14.125Z,1.83
2023-04-11T20:01:30.018Z,1.60
2023-04-11T20:09:53.970Z,2.00
2023-04-11T20:15:58.699Z,3.10
2023-04-11T20:19:46.486Z,2.58
2023-04-11T20:23:08.055Z,2.15
2023-04-11T20:30:41.124Z,2.60
2023-04-11T20:37:31.766Z,2.53
2023-04-11T20:59:28.992Z,2.10
2023-04-11T21:06:55.954Z,3.58
2023-04-11T21:13:55.283Z,2.38
2023-04-11T21:20:57.693Z,2.22
2023-04-11T21:23:49.029Z,2.65
2023-04-11T21:26:17.363Z,2.50
2023-04-11T21:28:45.208Z,2.10
2023-04-11T21:31:13.097Z,1.83
2023-04-11T21:33:42.749Z,2.28
2023-04-11T21:36:13.056Z,2.22
2023-04-11T21:38:45.039Z,2.33
2023-04-11T21:41:12.867Z,1.95
2023-04-11T21:43:41.237Z,2.10
2023-04-11T21:46:09.150Z,2.25
2023-04-11T21:48:36.809Z,1.83
2023-04-11T21:51:05.285Z,2.58
2023-04-11T21:53:32.915Z,2.75
2023-04-11T21:56:00.773Z,2.95
2023-04-11T21:58:30.125Z,1.98
2023-04-11T22:00:57.757Z,2.17
2023-04-11T22:03:29.564Z,2.10
2023-04-11T22:06:04.336Z,2.63
2023-04-11T22:08:38.333Z,2.22
2023-04-11T22:11:15.118Z,1.90
2023-04-11T22:13:48.370Z,3.10
2023-04-11T22:16:17.405Z,1.83
2023-04-11T22:18:49.238Z,2.03
2023-04-11T22:21:21.897Z,2.13
2023-04-11T22:23:55.105Z,2.08
2023-04-11T22:26:34.379Z,2.45
2023-04-11T22:29:07.075Z,2.88
2023-04-11T22:31:38.983Z,2.90
2023-04-11T22:34:10.463Z,2.75
2023-04-11T22:36:40.785Z,3.10
2023-04-11T22:39:15.003Z,2.53
2023-04-11T22:41:47.989Z,3.08
2023-04-11T22:44:15.882Z,2.92
2023-04-11T22:47:09.432Z,2.97
2023-04-11T22:49:42.823Z,3.22
2023-04-11T22:52:15.165Z,3.22
2023-04-11T22:54:46.974Z,3.45
2023-04-11T22:57:16.875Z,3.17
2023-04-11T22:59:44.333Z,3.45
2023-04-11T23:02:13.336Z,3.70
2023-04-11T23:04:40.966Z,3.15
2023-04-11T23:07:10.685Z,3.15
2023-04-11T23:09:38.241Z,3.50
2023-04-11T23:12:21.311Z,2.78
2023-04-11T23:14:50.504Z,3.22
2023-04-11T23:17:26.390Z,3.15
2023-04-11T23:19:53.397Z,2.70
2023-04-11T23:22:21.314Z,3.45
2023-04-11T23:24:53.859Z,2.90
2023-04-11T23:27:21.588Z,2.95
2023-04-11T23:29:53.998Z,5.47
2023-04-11T23:32:23.049Z,3.35
2023-04-11T23:34:51.062Z,3.72
2023-04-11T23:37:26.304Z,3.35
2023-04-11T23:40:00.390Z,3.78
2023-04-11T23:42:35.720Z,3.13
2023-04-11T23:45:11.121Z,4.00
2023-04-11T23:47:45.040Z,3.63
2023-04-11T23:52:53.739Z,3.80
2023-04-11T23:55:21.991Z,3.35
2023-04-11T23:57:51.670Z,3.78
